createdAt,value
2023-01-04T00:01:57.163Z,149777.44
2023-01-04T00:04:23.083Z,149774.91
2023-01-04T00:06:48.905Z,149776.19
2023-01-04T00:09:14.725Z,149795.06
2023-01-04T00:11:40.592Z,149793.81
2023-01-04T00:14:06.431Z,149786.22
2023-01-04T00:16:32.310Z,149783.72
2023-01-04T00:18:58.145Z,149769.84
2023-01-04T00:21:29.309Z,149784.97
2023-01-04T00:23:57.996Z,149778.69
2023-01-04T00:26:25.927Z,149779.94
2023-01-04T00:29:00.095Z,149776.19
2023-01-04T00:31:27.568Z,149783.72
2023-01-04T00:33:58.446Z,149802.59
2023-01-04T00:36:25.056Z,149806.38
2023-01-04T00:39:09.560Z,149812.69
2023-01-04T00:41:58.283Z,149787.47
2023-01-04T00:44:22.685Z,149816.47
2023-01-04T00:46:48.737Z,149801.34
2023-01-04T00:49:14.710Z,149797.56
2023-01-04T00:51:41.809Z,149795.06
2023-01-04T00:54:12.367Z,149810.19
2023-01-04T00:56:38.187Z,149827.81
2023-01-04T00:59:04.847Z,149826.56
2023-01-04T01:01:32.621Z,149836.63
2023-01-04T01:04:00.827Z,149807.69
2023-01-04T01:06:28.377Z,149818.97
2023-01-04T01:08:54.512Z,149831.59
2023-01-04T01:11:21.218Z,149834.09
2023-01-04T01:13:47.961Z,149851.75
2023-01-04T01:16:18.978Z,149863.09
2023-01-04T01:18:50.317Z,149856.75
2023-01-04T01:21:19.859Z,149858.03
2023-01-04T01:23:46.565Z,149873.16
2023-01-04T01:26:14.996Z,149893.31
2023-01-04T01:28:41.805Z,149899.63
2023-01-04T01:31:19.732Z,149900.88
2023-01-04T01:33:46.971Z,149923.56
2023-01-04T01:36:14.344Z,149921.03
2023-01-04T01:38:41.011Z,149916.03
2023-01-04T01:41:13.804Z,149912.19
2023-01-04T01:43:52.616Z,149917.28
2023-01-04T01:46:49.484Z,149927.31
2023-01-04T01:49:35.441Z,149918.53
2023-01-04T01:52:04.786Z,149918.53
2023-01-04T01:54:35.854Z,149903.41
2023-01-04T01:57:05.275Z,149917.28
2023-01-04T01:59:33.674Z,149912.19
2023-01-04T02:01:59.748Z,149933.66
2023-01-04T02:04:26.233Z,149936.19
2023-01-04T02:06:55.340Z,149946.22
2023-01-04T02:09:22.654Z,149946.22
2023-01-04T02:11:48.575Z,149950.06
2023-01-04T02:14:26.335Z,149941.19
2023-01-04T02:17:06.773Z,149931.09
2023-01-04T02:20:09.883Z,149932.41
2023-01-04T02:23:13.356Z,149926.06
2023-01-04T02:25:56.788Z,149939.94
2023-01-04T02:28:31.466Z,149937.44
2023-01-04T02:31:25.631Z,149936.19
2023-01-04T02:34:04.552Z,149955.06
2023-01-04T02:36:51.516Z,149928.59
2023-01-04T02:39:28.444Z,149950.06
2023-01-04T02:42:51.233Z,149966.38
2023-01-04T02:45:22.053Z,149970.22
2023-01-04T02:48:06.748Z,149946.22
2023-01-04T02:50:39.181Z,149962.63
2023-01-04T02:53:16.463Z,149965.13
2023-01-04T02:55:50.748Z,149971.47
2023-01-04T02:58:48.132Z,149966.38
2023-01-04T03:01:39.118Z,149955.06
2023-01-04T03:04:38.988Z,149962.63
2023-01-04T03:07:12.548Z,149960.09
2023-01-04T03:09:44.076Z,149963.88
2023-01-04T03:12:33.663Z,149962.63
2023-01-04T03:15:05.162Z,149975.22
2023-01-04T03:17:38.141Z,149981.53
2023-01-04T03:20:06.847Z,149984.03
2023-01-04T03:22:55.621Z,149972.72
2023-01-04T03:25:53.201Z,149996.66
2023-01-04T03:28:41.683Z,149985.28
2023-01-04T03:31:34.270Z,149987.84
2023-01-04T03:34:19.102Z,149991.63
2023-01-04T03:36:50.019Z,150002.94
2023-01-04T03:39:45.437Z,149997.91
2023-01-04T03:42:40.429Z,150020.59
2023-01-04T03:45:51.416Z,149994.13
2023-01-04T03:48:30.929Z,149999.16
2023-01-04T03:51:14.805Z,150016.81
2023-01-04T03:54:05.595Z,150005.50
2023-01-04T03:56:34.709Z,150010.53
2023-01-04T03:59:00.755Z,150013.03
2023-01-04T04:01:27.679Z,150018.06
2023-01-04T04:04:13.030Z,150029.44
2023-01-04T04:06:57.923Z,150047.06
2023-01-04T04:09:23.803Z,150034.47
2023-01-04T04:11:49.737Z,150034.47
2023-01-04T04:14:15.574Z,150025.66
2023-01-04T04:16:41.445Z,150039.50
2023-01-04T04:19:08.971Z,150047.06
2023-01-04T04:21:36.026Z,150048.34
2023-01-04T04:24:02.161Z,150053.38
2023-01-04T04:26:27.976Z,150055.88
2023-01-04T04:28:53.845Z,150054.63
2023-01-04T04:31:19.713Z,150062.22
2023-01-04T04:33:45.657Z,150065.97
2023-01-04T04:36:11.548Z,150063.47
2023-01-04T04:38:37.471Z,150112.66
2023-01-04T04:41:30.493Z,150098.78
2023-01-04T04:43:57.072Z,150096.25
2023-01-04T04:46:23.024Z,150089.91
2023-01-04T04:48:49.103Z,150122.72
2023-01-04T04:51:14.967Z,150102.53
2023-01-04T04:53:40.911Z,150107.56
2023-01-04T04:56:06.989Z,150107.56
2023-01-04T04:58:34.494Z,150095.00
2023-01-04T05:01:00.345Z,150092.44
2023-01-04T05:03:26.220Z,150097.50
2023-01-04T05:05:52.145Z,150098.78
2023-01-04T05:08:17.984Z,150087.41
2023-01-04T05:10:43.938Z,150101.28
2023-01-04T05:13:12.408Z,150115.16
2023-01-04T05:15:41.254Z,150111.41
2023-01-04T05:18:09.345Z,150112.66
2023-01-04T05:20:35.194Z,150106.31
2023-01-04T05:23:01.362Z,150100.03
2023-01-04T05:25:27.598Z,150122.72
2023-01-04T05:27:53.535Z,150098.78
2023-01-04T05:30:38.361Z,150105.06
2023-01-04T05:33:05.424Z,150115.16
2023-01-04T05:35:31.586Z,150111.41
2023-01-04T05:37:57.665Z,150110.09
2023-01-04T05:40:24.124Z,150126.47
2023-01-04T05:42:50.285Z,150123.97
2023-01-04T05:45:17.381Z,150142.88
2023-01-04T05:47:43.217Z,150150.47
2023-01-04T05:50:10.204Z,150165.63
2023-01-04T05:52:36.615Z,150156.75
2023-01-04T05:55:02.960Z,150154.25
2023-01-04T05:57:28.812Z,150164.31
2023-01-04T05:59:54.615Z,150168.13
2023-01-04T06:02:23.630Z,150179.44
2023-01-04T06:04:54.844Z,150187.03
2023-01-04T06:07:24.203Z,150200.88
2023-01-04T06:09:50.114Z,150193.34
2023-01-04T06:12:15.930Z,150195.84
2023-01-04T06:14:41.817Z,150203.44
2023-01-04T06:17:07.846Z,150203.44
2023-01-04T06:19:33.781Z,150202.19
2023-01-04T06:21:59.788Z,150200.88
2023-01-04T06:24:25.704Z,150208.47
2023-01-04T06:26:51.533Z,150203.44
2023-01-04T06:29:17.375Z,150188.31
2023-01-04T06:31:43.658Z,150228.66
2023-01-04T06:34:14.123Z,150217.28
2023-01-04T06:36:40.119Z,150217.28
2023-01-04T06:39:07.061Z,150221.09
2023-01-04T06:41:33.586Z,150228.66
2023-01-04T06:43:59.971Z,150226.13
2023-01-04T06:46:26.361Z,150232.41
2023-01-04T06:48:53.299Z,150229.91
2023-01-04T06:51:20.428Z,150240.03
2023-01-04T06:53:46.430Z,150233.69
2023-01-04T06:56:12.779Z,150237.50
2023-01-04T06:58:39.274Z,150234.94
2023-01-04T07:01:05.601Z,150246.31
2023-01-04T07:03:31.525Z,150237.50
2023-01-04T07:05:57.980Z,150250.09
2023-01-04T07:08:24.127Z,150261.44
2023-01-04T07:10:50.234Z,150276.59
2023-01-04T07:13:16.056Z,150271.50
2023-01-04T07:15:42.080Z,150265.22
2023-01-04T07:18:09.897Z,150269.00
2023-01-04T07:20:37.435Z,150275.34
2023-01-04T07:23:04.093Z,150275.34
2023-01-04T07:25:29.989Z,150276.59
2023-01-04T07:27:55.864Z,150296.81
2023-01-04T07:30:23.166Z,150279.13
2023-01-04T07:32:50.482Z,150306.88
2023-01-04T07:35:16.435Z,150314.50
2023-01-04T07:37:42.877Z,150305.63
2023-01-04T07:40:10.202Z,150328.38
2023-01-04T07:42:36.321Z,150340.97
2023-01-04T07:45:03.977Z,150322.03
2023-01-04T07:47:29.900Z,150317.00
2023-01-04T07:49:55.872Z,150305.63
2023-01-04T07:52:21.948Z,150338.44
2023-01-04T07:54:47.743Z,150335.94
2023-01-04T07:57:13.775Z,150322.03
2023-01-04T07:59:39.678Z,150324.56
2023-01-04T08:02:06.518Z,150325.81
2023-01-04T08:04:35.117Z,150334.66
2023-01-04T08:07:01.499Z,150338.44
2023-01-04T08:09:27.483Z,150346.03
2023-01-04T08:11:53.293Z,150349.81
2023-01-04T08:14:19.145Z,150356.09
2023-01-04T08:16:45.129Z,150338.44
2023-01-04T08:19:16.617Z,150327.13
2023-01-04T08:21:42.990Z,150323.28
2023-01-04T08:24:14.523Z,150327.13
2023-01-04T08:26:40.993Z,150354.84
2023-01-04T08:29:06.814Z,150348.56
2023-01-04T08:31:33.555Z,150339.69
2023-01-04T08:34:02.947Z,150354.84
2023-01-04T08:36:31.482Z,150370.00
2023-01-04T08:39:01.662Z,150364.97
2023-01-04T08:44:20.309Z,150357.38
2023-01-04T08:46:47.064Z,150376.28
2023-01-04T08:49:13.089Z,150378.81
2023-01-04T08:51:39.293Z,150393.97
2023-01-04T08:54:05.158Z,150387.66
2023-01-04T08:56:30.972Z,150388.94
2023-01-04T08:58:56.785Z,150373.78
2023-01-04T09:01:22.678Z,150392.69
2023-01-04T09:03:48.572Z,150388.94
2023-01-04T09:06:15.635Z,150393.97
2023-01-04T09:08:43.360Z,150404.06
2023-01-04T09:11:16.992Z,150407.84
2023-01-04T09:13:43.661Z,150414.16
2023-01-04T09:16:12.202Z,150412.88
2023-01-04T09:18:38.787Z,150434.38
2023-01-04T09:21:07.013Z,150421.75
2023-01-04T09:23:33.495Z,150420.50
2023-01-04T09:26:09.163Z,150421.75
2023-01-04T09:28:35.654Z,150424.25
2023-01-04T09:31:09.024Z,150430.56
2023-01-04T09:34:04.011Z,150419.22
2023-01-04T09:36:23.197Z,150423.00
2023-01-04T09:38:49.426Z,150426.78
2023-01-04T09:41:42.322Z,150428.03
2023-01-04T09:44:08.137Z,150431.81
2023-01-04T09:46:50.130Z,150416.72
2023-01-04T09:49:31.917Z,150457.09
2023-01-04T09:52:06.064Z,150446.97
2023-01-04T09:54:40.335Z,150439.41
2023-01-04T09:57:17.683Z,150455.84
2023-01-04T09:59:44.412Z,150470.97
2023-01-04T10:02:22.417Z,150468.41
2023-01-04T10:04:50.284Z,150468.41
2023-01-04T10:07:31.293Z,150483.56
2023-01-04T10:09:58.398Z,150481.06
2023-01-04T10:12:40.566Z,150484.84
2023-01-04T10:15:37.427Z,150481.06
2023-01-04T10:23:45.134Z,150491.19
2023-01-04T10:26:17.513Z,150496.22
2023-01-04T10:28:43.301Z,150496.22
2023-01-04T10:31:39.547Z,150518.91
2023-01-04T10:34:19.406Z,150506.34
2023-01-04T10:36:46.785Z,150505.03
2023-01-04T10:39:19.080Z,150511.38
2023-01-04T10:41:54.867Z,150522.69
2023-01-04T10:44:50.092Z,150512.63
2023-01-04T10:47:35.292Z,150525.25
2023-01-04T10:50:26.860Z,150516.41
2023-01-04T10:52:59.955Z,150546.72
2023-01-04T10:56:23.901Z,150535.34
2023-01-04T10:59:10.368Z,150518.91
2023-01-04T11:01:45.116Z,150550.50
2023-01-04T11:04:27.572Z,150563.13
2023-01-04T11:07:02.146Z,150546.72
2023-01-04T11:09:52.041Z,150584.59
2023-01-04T11:12:21.291Z,150589.63
2023-01-04T11:14:48.658Z,150580.81
2023-01-04T11:17:14.741Z,150579.56
2023-01-04T11:19:42.066Z,150601.00
2023-01-04T11:22:15.062Z,150601.00
2023-01-04T11:25:07.696Z,150625.00
2023-01-04T11:27:39.917Z,150630.03
2023-01-04T11:30:16.716Z,150627.50
2023-01-04T11:33:02.314Z,150631.28
2023-01-04T11:35:43.469Z,150625.00
2023-01-04T11:38:19.431Z,150628.75
2023-01-04T11:40:57.518Z,150625.00
2023-01-04T11:43:25.486Z,150631.28
2023-01-04T11:45:54.147Z,150631.28
2023-01-04T11:48:31.427Z,150641.41
2023-01-04T11:50:57.440Z,150636.38
2023-01-04T11:53:23.200Z,150627.50
2023-01-04T11:55:49.054Z,150647.72
2023-01-04T11:58:19.130Z,150659.09
2023-01-04T12:00:53.696Z,150679.28
2023-01-04T12:03:28.824Z,150685.59
2023-01-04T12:05:55.178Z,150674.25
2023-01-04T12:08:32.281Z,150665.38
2023-01-04T12:11:03.984Z,150683.06
2023-01-04T12:13:32.059Z,150676.78
2023-01-04T12:16:09.866Z,150665.38
2023-01-04T12:18:41.092Z,150676.78
2023-01-04T12:21:17.278Z,150665.38
2023-01-04T12:23:43.783Z,150684.34
2023-01-04T12:26:11.388Z,150688.16
2023-01-04T12:28:43.594Z,150703.28
2023-01-04T12:31:30.207Z,150699.50
2023-01-04T12:33:58.421Z,150698.25
2023-01-04T12:36:39.320Z,150699.50
2023-01-04T12:39:14.251Z,150688.16
2023-01-04T12:41:40.124Z,150708.38
2023-01-04T12:44:37.971Z,150708.38
2023-01-04T12:47:47.530Z,150712.16
2023-01-04T12:50:13.402Z,150714.66
2023-01-04T12:55:43.640Z,150705.84
2023-01-04T12:59:06.523Z,150734.88
2023-01-04T13:01:26.571Z,150737.38
2023-01-04T13:04:04.738Z,150745.00
2023-01-04T13:06:36.467Z,150729.81
2023-01-04T13:09:02.991Z,150745.00
2023-01-04T13:11:52.283Z,150724.78
2023-01-04T13:14:27.824Z,150751.28
2023-01-04T13:17:12.420Z,150729.81
2023-01-04T13:19:38.962Z,150724.78
2023-01-04T13:22:15.951Z,150739.97
2023-01-04T13:24:43.471Z,150722.28
2023-01-04T13:27:18.909Z,150777.84
2023-01-04T13:29:45.826Z,150776.59
2023-01-04T13:32:24.348Z,150755.06
2023-01-04T13:35:03.709Z,150756.34
2023-01-04T13:37:37.443Z,150742.47
2023-01-04T13:40:26.707Z,150789.19
2023-01-04T13:43:14.081Z,150777.84
2023-01-04T13:45:42.663Z,150766.47
2023-01-04T13:48:12.136Z,150774.03
2023-01-04T13:50:43.430Z,150779.13
2023-01-04T13:53:35.205Z,150787.94
2023-01-04T13:56:03.146Z,150801.84
2023-01-04T13:58:33.910Z,150806.88
2023-01-04T14:01:07.241Z,150811.97
2023-01-04T14:03:39.715Z,150818.28
2023-01-04T14:06:08.625Z,150813.22
2023-01-04T14:08:39.390Z,150809.41
2023-01-04T14:11:38.254Z,150820.78
2023-01-04T14:14:13.103Z,150838.47
2023-01-04T14:16:39.013Z,150868.84
2023-01-04T14:19:47.271Z,150861.22
2023-01-04T14:22:28.339Z,150881.44
2023-01-04T14:25:12.229Z,150862.47
2023-01-04T14:27:41.755Z,150868.84
2023-01-04T14:30:19.803Z,150881.44
2023-01-04T14:33:16.658Z,150884.00
2023-01-04T14:35:47.671Z,150873.88
2023-01-04T14:38:17.809Z,150897.91
2023-01-04T14:40:44.850Z,150913.09
2023-01-04T14:43:34.266Z,150908.06
2023-01-04T14:46:00.460Z,150932.06
2023-01-04T14:48:30.617Z,150915.63
2023-01-04T14:50:59.283Z,150921.97
2023-01-04T14:53:25.185Z,150919.44
2023-01-04T14:55:51.101Z,150921.97
2023-01-04T14:58:17.019Z,150948.50
2023-01-04T15:00:42.809Z,150937.09
2023-01-04T15:03:09.513Z,150921.97
2023-01-04T15:05:37.959Z,150937.09
2023-01-04T15:08:04.366Z,150947.22
2023-01-04T15:10:30.285Z,150944.72
2023-01-04T15:13:03.645Z,150959.88
2023-01-04T15:15:32.251Z,150951.00
2023-01-04T15:17:58.696Z,150972.50
2023-01-04T15:20:25.282Z,150988.94
2023-01-04T15:22:51.255Z,150994.03
2023-01-04T15:25:17.216Z,150992.75
2023-01-04T15:27:43.375Z,151000.31
2023-01-04T15:30:11.275Z,150997.81
2023-01-04T15:32:37.180Z,151001.59
2023-01-04T15:35:04.026Z,150982.63
2023-01-04T15:37:29.843Z,151000.31
2023-01-04T15:40:01.928Z,150988.94
2023-01-04T15:42:47.183Z,150990.19
2023-01-04T15:45:13.113Z,150987.66
2023-01-04T15:47:39.036Z,151023.06
2023-01-04T15:50:05.392Z,150997.81
2023-01-04T15:52:31.319Z,150999.06
2023-01-04T15:54:57.193Z,151018.03
2023-01-04T15:57:23.073Z,150990.19
2023-01-04T15:59:48.957Z,150980.09
2023-01-04T16:02:14.908Z,150990.19
2023-01-04T16:04:40.848Z,150985.16
2023-01-04T16:07:06.749Z,151012.97
2023-01-04T16:09:32.716Z,150996.53
2023-01-04T16:12:17.204Z,150992.75
2023-01-04T16:14:43.055Z,150980.09
2023-01-04T16:17:09.045Z,150977.59
2023-01-04T16:19:34.987Z,151014.25
2023-01-04T16:22:00.911Z,150991.50
2023-01-04T16:25:08.865Z,150996.53
2023-01-04T16:27:12.884Z,150987.66
2023-01-04T16:29:38.774Z,150975.06
2023-01-04T16:32:05.534Z,150996.53
2023-01-04T16:34:31.483Z,150990.19
2023-01-04T16:36:58.013Z,150978.84
2023-01-04T16:39:57.139Z,150976.31
2023-01-04T16:42:11.115Z,150972.50
2023-01-04T16:44:45.278Z,150987.66
2023-01-04T16:47:11.776Z,150987.66
2023-01-04T16:49:37.835Z,150983.88
2023-01-04T16:52:06.036Z,150964.94
2023-01-04T16:54:32.069Z,150994.03
2023-01-04T16:56:58.377Z,151002.84
2023-01-04T16:59:24.850Z,150992.75
2023-01-04T17:01:57.604Z,151004.09
2023-01-04T17:04:24.054Z,151001.59
2023-01-04T17:06:51.551Z,150997.81
2023-01-04T17:09:20.451Z,150997.81
2023-01-04T17:12:45.520Z,151006.63
2023-01-04T17:14:42.299Z,150995.28
2023-01-04T17:17:09.182Z,150986.41
2023-01-04T17:19:35.250Z,150991.50
2023-01-04T17:22:01.227Z,150982.63
2023-01-04T17:24:27.121Z,150995.28
2023-01-04T17:26:53.054Z,150991.50
2023-01-04T17:29:18.922Z,151000.31
2023-01-04T17:31:44.954Z,151005.38
2023-01-04T17:34:22.285Z,150995.28
2023-01-04T17:36:49.295Z,151012.97
2023-01-04T17:39:15.326Z,150996.53
2023-01-04T17:41:41.768Z,151002.84
2023-01-04T17:44:08.851Z,151011.72
2023-01-04T17:46:36.710Z,151011.72
2023-01-04T17:49:30.545Z,150997.81
2023-01-04T17:51:54.746Z,150999.06
2023-01-04T17:54:20.803Z,151004.09
2023-01-04T17:56:46.777Z,151000.31
2023-01-04T17:59:12.814Z,150987.66
2023-01-04T18:01:38.973Z,150988.94
2023-01-04T18:04:05.166Z,150997.81
2023-01-04T18:06:34.258Z,150986.41
2023-01-04T18:09:01.294Z,150968.72
2023-01-04T18:11:27.820Z,150994.03
2023-01-04T18:13:53.758Z,150971.22
2023-01-04T18:16:24.900Z,150957.38
2023-01-04T18:18:52.650Z,150959.88
2023-01-04T18:21:30.497Z,150964.94
2023-01-04T18:24:34.913Z,150964.94
2023-01-04T18:27:19.874Z,150952.28
2023-01-04T18:29:33.979Z,150929.53
2023-01-04T18:32:00.278Z,150939.66
2023-01-04T18:34:26.735Z,150939.66
2023-01-04T18:36:53.564Z,150953.53
2023-01-04T18:39:20.144Z,150932.06
2023-01-04T18:41:46.273Z,150932.06
2023-01-04T18:46:58.393Z,150944.72
2023-01-04T18:49:24.329Z,150940.91
2023-01-04T18:51:50.456Z,150937.09
2023-01-04T18:54:19.945Z,150919.44
2023-01-04T18:56:46.997Z,150920.69
2023-01-04T18:59:13.080Z,150916.88
2023-01-04T19:01:39.126Z,150937.09
2023-01-04T19:04:05.207Z,150918.13
2023-01-04T19:06:31.130Z,150909.31
2023-01-04T19:09:01.482Z,150923.22
2023-01-04T19:11:30.562Z,150913.09
2023-01-04T19:13:56.468Z,150911.84
2023-01-04T19:16:23.256Z,150927.00
2023-01-04T19:18:49.268Z,150906.78
2023-01-04T19:21:15.209Z,150896.66
2023-01-04T19:23:41.195Z,150900.44
2023-01-04T19:26:07.815Z,150900.44
2023-01-04T19:28:34.283Z,150905.53
2023-01-04T19:31:07.082Z,150900.44
2023-01-04T19:33:36.188Z,150892.88
2023-01-04T19:36:05.791Z,150906.78
2023-01-04T19:38:31.884Z,150904.28
2023-01-04T19:40:59.238Z,150919.44
2023-01-04T19:43:25.381Z,150910.56
2023-01-04T19:45:51.412Z,150916.88
2023-01-04T19:48:17.523Z,150923.22
2023-01-04T19:50:43.563Z,150920.69
2023-01-04T19:53:09.669Z,150923.22
2023-01-04T19:55:39.035Z,150908.06
2023-01-04T19:58:04.943Z,150908.06
2023-01-04T20:00:30.820Z,150896.66
2023-01-04T20:02:56.902Z,150913.09
2023-01-04T20:05:22.939Z,150905.53
2023-01-04T20:07:50.098Z,150924.50
2023-01-04T20:10:16.256Z,150903.00
2023-01-04T20:12:43.064Z,150885.25
2023-01-04T20:15:09.831Z,150921.97
2023-01-04T20:17:35.830Z,150930.78
2023-01-04T20:20:01.679Z,150921.97
2023-01-04T20:22:27.631Z,150915.63
2023-01-04T20:24:53.572Z,150914.34
2023-01-04T20:27:19.432Z,150906.78
2023-01-04T20:29:45.382Z,150919.44
2023-01-04T20:32:11.417Z,150899.19
2023-01-04T20:34:37.462Z,150909.31
2023-01-04T20:37:03.893Z,150904.28
2023-01-04T20:39:29.837Z,150884.00
2023-01-04T20:42:14.594Z,150890.34
2023-01-04T20:44:40.613Z,150886.53
2023-01-04T20:47:06.710Z,150862.47
2023-01-04T20:49:32.701Z,150867.56
2023-01-04T20:51:58.705Z,150863.75
2023-01-04T20:54:24.677Z,150865.00
2023-01-04T20:56:50.651Z,150901.75
2023-01-04T20:59:17.065Z,150871.34
2023-01-04T21:01:43.291Z,150886.53
2023-01-04T21:04:09.468Z,150878.91
2023-01-04T21:06:35.293Z,150890.34
2023-01-04T21:09:01.204Z,150875.13
2023-01-04T21:11:27.576Z,150867.56
2023-01-04T21:13:53.494Z,150881.44
2023-01-04T21:16:19.735Z,150882.69
2023-01-04T21:18:45.643Z,150859.97
2023-01-04T21:21:14.044Z,150886.53
2023-01-04T21:23:42.535Z,150854.91
2023-01-04T21:26:12.506Z,150861.22
2023-01-04T21:28:38.808Z,150867.56
2023-01-04T21:31:12.825Z,150881.44
2023-01-04T21:33:38.820Z,150858.69
2023-01-04T21:36:09.637Z,150873.88
2023-01-04T21:38:35.508Z,150880.19
2023-01-04T21:41:07.755Z,150891.63
2023-01-04T21:43:33.748Z,150876.41
2023-01-04T21:46:07.185Z,150861.22
2023-01-04T21:48:33.043Z,150844.78
2023-01-04T21:50:59.990Z,150842.28
2023-01-04T21:53:28.411Z,150868.84
2023-01-04T21:56:05.822Z,150865.00
2023-01-04T21:58:32.576Z,150843.53
2023-01-04T22:00:58.682Z,150839.75
2023-01-04T22:03:24.609Z,150861.22
2023-01-04T22:05:50.702Z,150868.84
2023-01-04T22:08:16.787Z,150858.69
2023-01-04T22:10:42.748Z,150843.53
2023-01-04T22:13:08.928Z,150835.97
2023-01-04T22:15:39.350Z,150841.00
2023-01-04T22:18:05.732Z,150847.31
2023-01-04T22:20:31.854Z,150841.00
2023-01-04T22:22:57.860Z,150830.94
2023-01-04T22:25:23.868Z,150828.34
2023-01-04T22:27:50.644Z,150824.56
2023-01-04T22:30:16.693Z,150832.19
2023-01-04T22:32:42.846Z,150873.88
2023-01-04T22:35:09.238Z,150851.13
2023-01-04T22:37:35.203Z,150851.13
2023-01-04T22:40:01.505Z,150871.34
2023-01-04T22:42:27.432Z,150861.22
2023-01-04T22:44:53.303Z,150851.13
2023-01-04T22:47:19.129Z,150854.91
2023-01-04T22:49:45.059Z,150856.19
2023-01-04T22:52:10.895Z,150844.78
2023-01-04T22:54:36.745Z,150884.00
2023-01-04T22:57:02.634Z,150863.75
2023-01-04T22:59:28.513Z,150852.41
2023-01-04T23:01:54.461Z,150846.06
2023-01-04T23:04:20.396Z,150858.69
2023-01-04T23:06:46.418Z,150863.75
2023-01-04T23:09:15.014Z,150861.22
2023-01-04T23:11:42.460Z,150853.66
2023-01-04T23:14:13.343Z,150872.63
2023-01-04T23:16:39.319Z,150866.31
2023-01-04T23:19:06.912Z,150870.09
2023-01-04T23:21:34.250Z,150856.19
2023-01-04T23:24:00.334Z,150844.78
2023-01-04T23:26:27.947Z,150861.22
2023-01-04T23:28:54.130Z,150851.13
2023-01-04T23:31:22.495Z,150863.75
2023-01-04T23:33:52.451Z,150886.53
2023-01-04T23:36:21.146Z,150842.28
2023-01-04T23:38:55.535Z,150886.53
2023-01-04T23:41:43.516Z,150875.13
2023-01-04T23:44:20.053Z,150853.66
2023-01-04T23:46:51.235Z,150833.44
2023-01-04T23:49:17.103Z,150813.22
2023-01-04T23:51:43.077Z,150834.72
2023-01-04T23:54:09.186Z,150835.97
2023-01-04T23:56:35.560Z,150844.78
2023-01-04T23:59:01.511Z,150854.91
